sensor_id;sensor_type;location;lat;lon;timestamp;P1;durP1;ratioP1;P2;durP2;ratioP2
59960;SDS011;55902;-37.980;-63.602;2022-09-16T00:01:14;17.85;;;4.20;;
59960;SDS011;55902;-37.980;-63.602;2022-09-16T00:03:43;22.15;;;4.10;;
59960;SDS011;55902;-37.980;-63.602;2022-09-16T00:06:21;16.13;;;4.22;;
59960;SDS011;55902;-37.980;-63.602;2022-09-16T00:08:57;20.05;;;5.05;;
59960;SDS011;55902;-37.980;-63.602;2022-09-16T00:11:29;14.95;;;3.85;;
59960;SDS011;55902;-37.980;-63.602;2022-09-16T00:14:00;22.85;;;4.47;;
59960;SDS011;55902;-37.980;-63.602;2022-09-16T00:16:31;15.00;;;4.35;;
59960;SDS011;55902;-37.980;-63.602;2022-09-16T00:18:59;17.67;;;3.90;;
59960;SDS011;55902;-37.980;-63.602;2022-09-16T00:21:30;22.15;;;3.90;;
59960;SDS011;55902;-37.980;-63.602;2022-09-16T00:23:58;12.73;;;3.78;;
59960;SDS011;55902;-37.980;-63.602;2022-09-16T00:26:25;13.10;;;3.60;;
59960;SDS011;55902;-37.980;-63.602;2022-09-16T00:28:52;17.90;;;4.25;;
59960;SDS011;55902;-37.980;-63.602;2022-09-16T00:31:19;14.48;;;3.90;;
59960;SDS011;55902;-37.980;-63.602;2022-09-16T00:33:56;18.50;;;3.83;;
59960;SDS011;55902;-37.980;-63.602;2022-09-16T00:36:32;16.02;;;3.58;;
59960;SDS011;55902;-37.980;-63.602;2022-09-16T00:39:00;19.35;;;3.67;;
59960;SDS011;55902;-37.980;-63.602;2022-09-16T00:41:33;14.85;;;3.60;;
59960;SDS011;55902;-37.980;-63.602;2022-09-16T00:44:03;13.93;;;3.80;;
59960;SDS011;55902;-37.980;-63.602;2022-09-16T00:46:39;11.70;;;3.88;;
59960;SDS011;55902;-37.980;-63.602;2022-09-16T00:52:44;15.40;;;3.75;;
59960;SDS011;55902;-37.980;-63.602;2022-09-16T00:55:13;12.65;;;3.53;;
59960;SDS011;55902;-37.980;-63.602;2022-09-16T00:57:48;15.52;;;3.53;;
59960;SDS011;55902;-37.980;-63.602;2022-09-16T01:00:20;16.30;;;3.88;;
59960;SDS011;55902;-37.980;-63.602;2022-09-16T01:02:47;13.65;;;3.88;;
59960;SDS011;55902;-37.980;-63.602;2022-09-16T01:05:17;11.80;;;3.40;;
59960;SDS011;55902;-37.980;-63.602;2022-09-16T01:07:54;15.98;;;4.05;;
59960;SDS011;55902;-37.980;-63.602;2022-09-16T01:10:23;13.63;;;3.65;;
59960;SDS011;55902;-37.980;-63.602;2022-09-16T01:12:58;13.05;;;3.60;;
59960;SDS011;55902;-37.980;-63.602;2022-09-16T01:15:50;13.77;;;4.32;;
59960;SDS011;55902;-37.980;-63.602;2022-09-16T01:18:39;40.40;;;5.55;;
59960;SDS011;55902;-37.980;-63.602;2022-09-16T01:40:48;16.10;;;5.13;;
59960;SDS011;55902;-37.980;-63.602;2022-09-16T01:46:28;18.42;;;4.90;;
59960;SDS011;55902;-37.980;-63.602;2022-09-16T01:49:01;13.25;;;4.55;;
59960;SDS011;55902;-37.980;-63.602;2022-09-16T01:51:44;11.15;;;4.68;;
59960;SDS011;55902;-37.980;-63.602;2022-09-16T01:54:19;14.82;;;4.85;;
59960;SDS011;55902;-37.980;-63.602;2022-09-16T01:57:00;18.67;;;5.93;;
59960;SDS011;55902;-37.980;-63.602;2022-09-16T02:08:25;14.55;;;5.60;;
59960;SDS011;55902;-37.980;-63.602;2022-09-16T02:11:06;19.27;;;5.32;;
59960;SDS011;55902;-37.980;-63.602;2022-09-16T02:13:40;14.18;;;5.32;;
59960;SDS011;55902;-37.980;-63.602;2022-09-16T02:26:05;13.93;;;4.22;;
59960;SDS011;55902;-37.980;-63.602;2022-09-16T02:28:37;12.70;;;3.95;;
59960;SDS011;55902;-37.980;-63.602;2022-09-16T02:31:09;10.65;;;3.83;;
59960;SDS011;55902;-37.980;-63.602;2022-09-16T02:33:46;18.27;;;3.70;;
59960;SDS011;55902;-37.980;-63.602;2022-09-16T02:36:19;11.10;;;4.00;;
59960;SDS011;55902;-37.980;-63.602;2022-09-16T02:39:06;11.10;;;3.58;;
59960;SDS011;55902;-37.980;-63.602;2022-09-16T02:41:39;8.90;;;3.60;;
59960;SDS011;55902;-37.980;-63.602;2022-09-16T02:44:07;7.85;;;3.33;;
59960;SDS011;55902;-37.980;-63.602;2022-09-16T02:46:39;17.00;;;3.35;;
59960;SDS011;55902;-37.980;-63.602;2022-09-16T02:57:22;16.52;;;3.90;;
59960;SDS011;55902;-37.980;-63.602;2022-09-16T02:59:49;14.63;;;3.40;;
59960;SDS011;55902;-37.980;-63.602;2022-09-16T03:02:17;10.43;;;3.53;;
59960;SDS011;55902;-37.980;-63.602;2022-09-16T03:08:06;11.55;;;3.38;;
59960;SDS011;55902;-37.980;-63.602;2022-09-16T03:10:35;12.20;;;3.53;;
59960;SDS011;55902;-37.980;-63.602;2022-09-16T03:13:11;8.73;;;2.92;;
59960;SDS011;55902;-37.980;-63.602;2022-09-16T03:18:50;9.77;;;3.20;;
59960;SDS011;55902;-37.980;-63.602;2022-09-16T03:24:37;10.90;;;3.28;;
59960;SDS011;55902;-37.980;-63.602;2022-09-16T03:27:13;6.63;;;2.83;;
59960;SDS011;55902;-37.980;-63.602;2022-09-16T03:29:51;12.00;;;3.47;;
59960;SDS011;55902;-37.980;-63.602;2022-09-16T03:32:29;11.07;;;3.10;;
59960;SDS011;55902;-37.980;-63.602;2022-09-16T03:35:19;9.45;;;3.50;;
59960;SDS011;55902;-37.980;-63.602;2022-09-16T03:37:57;7.53;;;3.20;;
59960;SDS011;55902;-37.980;-63.602;2022-09-16T03:40:26;12.27;;;3.70;;
59960;SDS011;55902;-37.980;-63.602;2022-09-16T03:42:54;11.07;;;3.25;;
59960;SDS011;55902;-37.980;-63.602;2022-09-16T03:45:23;16.55;;;3.72;;
59960;SDS011;55902;-37.980;-63.602;2022-09-16T03:57:56;11.55;;;3.80;;
59960;SDS011;55902;-37.980;-63.602;2022-09-16T04:00:22;13.43;;;3.35;;
59960;SDS011;55902;-37.980;-63.602;2022-09-16T04:02:49;9.23;;;3.05;;
59960;SDS011;55902;-37.980;-63.602;2022-09-16T04:05:20;7.95;;;3.33;;
59960;SDS011;55902;-37.980;-63.602;2022-09-16T04:07:49;11.77;;;3.45;;
59960;SDS011;55902;-37.980;-63.602;2022-09-16T04:10:16;8.13;;;3.20;;
59960;SDS011;55902;-37.980;-63.602;2022-09-16T04:12:44;7.90;;;3.40;;
59960;SDS011;55902;-37.980;-63.602;2022-09-16T04:15:11;8.18;;;2.95;;
59960;SDS011;55902;-37.980;-63.602;2022-09-16T04:17:38;14.15;;;3.17;;
59960;SDS011;55902;-37.980;-63.602;2022-09-16T04:20:05;13.70;;;3.13;;
59960;SDS011;55902;-37.980;-63.602;2022-09-16T04:22:33;12.10;;;3.10;;
59960;SDS011;55902;-37.980;-63.602;2022-09-16T04:25:00;9.43;;;2.70;;
59960;SDS011;55902;-37.980;-63.602;2022-09-16T04:27:32;8.25;;;3.15;;
59960;SDS011;55902;-37.980;-63.602;2022-09-16T04:29:59;10.80;;;3.35;;
59960;SDS011;55902;-37.980;-63.602;2022-09-16T04:32:25;14.52;;;3.00;;
59960;SDS011;55902;-37.980;-63.602;2022-09-16T04:34:52;10.68;;;3.13;;
59960;SDS011;55902;-37.980;-63.602;2022-09-16T04:37:19;12.88;;;3.13;;
59960;SDS011;55902;-37.980;-63.602;2022-09-16T04:39:46;12.65;;;3.13;;
59960;SDS011;55902;-37.980;-63.602;2022-09-16T04:42:13;14.40;;;2.97;;
59960;SDS011;55902;-37.980;-63.602;2022-09-16T04:44:40;8.63;;;2.70;;
59960;SDS011;55902;-37.980;-63.602;2022-09-16T04:47:07;10.07;;;3.15;;
59960;SDS011;55902;-37.980;-63.602;2022-09-16T04:49:34;9.73;;;3.35;;
59960;SDS011;55902;-37.980;-63.602;2022-09-16T04:52:00;9.82;;;3.10;;
59960;SDS011;55902;-37.980;-63.602;2022-09-16T04:54:27;13.43;;;3.20;;
59960;SDS011;55902;-37.980;-63.602;2022-09-16T04:56:54;11.45;;;3.25;;
59960;SDS011;55902;-37.980;-63.602;2022-09-16T05:09:28;10.00;;;3.40;;
59960;SDS011;55902;-37.980;-63.602;2022-09-16T05:11:55;10.15;;;3.17;;
59960;SDS011;55902;-37.980;-63.602;2022-09-16T05:14:23;18.55;;;3.60;;
59960;SDS011;55902;-37.980;-63.602;2022-09-16T05:16:50;11.00;;;3.40;;
59960;SDS011;55902;-37.980;-63.602;2022-09-16T05:19:18;10.85;;;3.60;;
59960;SDS011;55902;-37.980;-63.602;2022-09-16T05:21:45;9.38;;;3.28;;
59960;SDS011;55902;-37.980;-63.602;2022-09-16T05:24:12;10.00;;;3.90;;
59960;SDS011;55902;-37.980;-63.602;2022-09-16T05:26:40;9.60;;;3.50;;
59960;SDS011;55902;-37.980;-63.602;2022-09-16T05:29:10;13.63;;;3.80;;
59960;SDS011;55902;-37.980;-63.602;2022-09-16T05:31:39;9.35;;;3.40;;
59960;SDS011;55902;-37.980;-63.602;2022-09-16T05:34:15;19.42;;;4.00;;
59960;SDS011;55902;-37.980;-63.602;2022-09-16T05:36:44;7.57;;;3.25;;
59960;SDS011;55902;-37.980;-63.602;2022-09-16T05:49:18;7.50;;;3.70;;
59960;SDS011;55902;-37.980;-63.602;2022-09-16T05:51:48;11.20;;;3.50;;
59960;SDS011;55902;-37.980;-63.602;2022-09-16T05:54:15;9.77;;;3.97;;
59960;SDS011;55902;-37.980;-63.602;2022-09-16T05:56:46;5.75;;;3.22;;
59960;SDS011;55902;-37.980;-63.602;2022-09-16T05:59:13;12.50;;;4.05;;
59960;SDS011;55902;-37.980;-63.602;2022-09-16T06:01:41;6.20;;;3.50;;
59960;SDS011;55902;-37.980;-63.602;2022-09-16T06:04:12;6.40;;;3.90;;
59960;SDS011;55902;-37.980;-63.602;2022-09-16T06:06:41;5.90;;;3.47;;
59960;SDS011;55902;-37.980;-63.602;2022-09-16T06:09:10;8.45;;;3.88;;
59960;SDS011;55902;-37.980;-63.602;2022-09-16T06:11:41;11.82;;;3.90;;
59960;SDS011;55902;-37.980;-63.602;2022-09-16T06:14:12;8.07;;;4.10;;
59960;SDS011;55902;-37.980;-63.602;2022-09-16T06:16:40;8.63;;;4.00;;
59960;SDS011;55902;-37.980;-63.602;2022-09-16T06:19:09;9.02;;;3.90;;
59960;SDS011;55902;-37.980;-63.602;2022-09-16T06:21:38;9.25;;;3.58;;
59960;SDS011;55902;-37.980;-63.602;2022-09-16T06:24:05;8.63;;;3.70;;
59960;SDS011;55902;-37.980;-63.602;2022-09-16T06:26:36;9.98;;;3.92;;
59960;SDS011;55902;-37.980;-63.602;2022-09-16T06:29:04;7.28;;;3.50;;
59960;SDS011;55902;-37.980;-63.602;2022-09-16T06:31:32;5.40;;;3.10;;
59960;SDS011;55902;-37.980;-63.602;2022-09-16T06:34:02;10.18;;;3.55;;
59960;SDS011;55902;-37.980;-63.602;2022-09-16T06:36:30;8.68;;;3.40;;
59960;SDS011;55902;-37.980;-63.602;2022-09-16T06:39:03;9.68;;;3.50;;
59960;SDS011;55902;-37.980;-63.602;2022-09-16T06:41:31;8.30;;;3.28;;
59960;SDS011;55902;-37.980;-63.602;2022-09-16T06:43:59;6.63;;;3.80;;
59960;SDS011;55902;-37.980;-63.602;2022-09-16T06:46:27;7.93;;;3.47;;
59960;SDS011;55902;-37.980;-63.602;2022-09-16T06:48:56;9.63;;;3.65;;
59960;SDS011;55902;-37.980;-63.602;2022-09-16T06:51:26;8.43;;;3.47;;
59960;SDS011;55902;-37.980;-63.602;2022-09-16T06:53:59;8.75;;;3.50;;
59960;SDS011;55902;-37.980;-63.602;2022-09-16T06:56:28;8.52;;;3.50;;
59960;SDS011;55902;-37.980;-63.602;2022-09-16T06:58:56;9.15;;;3.40;;
59960;SDS011;55902;-37.980;-63.602;2022-09-16T07:01:24;6.70;;;3.30;;
59960;SDS011;55902;-37.980;-63.602;2022-09-16T07:03:53;6.55;;;3.40;;
59960;SDS011;55902;-37.980;-63.602;2022-09-16T07:06:22;7.22;;;3.38;;
59960;SDS011;55902;-37.980;-63.602;2022-09-16T07:08:49;8.10;;;3.60;;
59960;SDS011;55902;-37.980;-63.602;2022-09-16T07:14:40;7.80;;;3.63;;
59960;SDS011;55902;-37.980;-63.602;2022-09-16T07:17:10;5.05;;;3.63;;
59960;SDS011;55902;-37.980;-63.602;2022-09-16T07:19:37;6.80;;;4.15;;
59960;SDS011;55902;-37.980;-63.602;2022-09-16T07:22:06;7.03;;;4.22;;
59960;SDS011;55902;-37.980;-63.602;2022-09-16T07:24:33;7.43;;;4.10;;
59960;SDS011;55902;-37.980;-63.602;2022-09-16T07:31:06;5.57;;;4.00;;
59960;SDS011;55902;-37.980;-63.602;2022-09-16T07:33:40;7.80;;;4.20;;
59960;SDS011;55902;-37.980;-63.602;2022-09-16T07:36:10;11.20;;;4.13;;
59960;SDS011;55902;-37.980;-63.602;2022-09-16T07:38:39;6.72;;;3.85;;
59960;SDS011;55902;-37.980;-63.602;2022-09-16T07:41:10;10.10;;;3.95;;
59960;SDS011;55902;-37.980;-63.602;2022-09-16T07:43:41;10.00;;;4.20;;
59960;SDS011;55902;-37.980;-63.602;2022-09-16T07:46:10;10.82;;;3.95;;
59960;SDS011;55902;-37.980;-63.602;2022-09-16T07:48:41;5.97;;;3.78;;
59960;SDS011;55902;-37.980;-63.602;2022-09-16T07:51:11;4.25;;;3.10;;
59960;SDS011;55902;-37.980;-63.602;2022-09-16T07:53:39;7.28;;;3.47;;
59960;SDS011;55902;-37.980;-63.602;2022-09-16T07:56:08;6.18;;;3.28;;
59960;SDS011;55902;-37.980;-63.602;2022-09-16T07:58:37;5.43;;;3.08;;
59960;SDS011;55902;-37.980;-63.602;2022-09-16T08:01:05;7.75;;;3.30;;
59960;SDS011;55902;-37.980;-63.602;2022-09-16T08:03:33;7.88;;;3.42;;
59960;SDS011;55902;-37.980;-63.602;2022-09-16T08:06:04;7.15;;;3.38;;
59960;SDS011;55902;-37.980;-63.602;2022-09-16T08:08:33;6.25;;;2.90;;
59960;SDS011;55902;-37.980;-63.602;2022-09-16T08:11:00;6.10;;;2.90;;
59960;SDS011;55902;-37.980;-63.602;2022-09-16T08:13:29;7.38;;;3.20;;
59960;SDS011;55902;-37.980;-63.602;2022-09-16T08:16:00;8.77;;;2.92;;
59960;SDS011;55902;-37.980;-63.602;2022-09-16T08:18:35;6.32;;;3.10;;
59960;SDS011;55902;-37.980;-63.602;2022-09-16T08:24:24;5.13;;;3.13;;
59960;SDS011;55902;-37.980;-63.602;2022-09-16T08:26:51;6.88;;;3.03;;
59960;SDS011;55902;-37.980;-63.602;2022-09-16T08:29:18;4.13;;;2.95;;
59960;SDS011;55902;-37.980;-63.602;2022-09-16T08:35:27;8.43;;;2.90;;
59960;SDS011;55902;-37.980;-63.602;2022-09-16T08:37:54;5.72;;;2.70;;
59960;SDS011;55902;-37.980;-63.602;2022-09-16T08:40:24;6.35;;;3.00;;
59960;SDS011;55902;-37.980;-63.602;2022-09-16T08:45:56;6.05;;;3.17;;
59960;SDS011;55902;-37.980;-63.602;2022-09-16T08:51:04;5.45;;;3.00;;
59960;SDS011;55902;-37.980;-63.602;2022-09-16T08:56:06;6.43;;;3.35;;
59960;SDS011;55902;-37.980;-63.602;2022-09-16T08:58:43;5.60;;;2.78;;
59960;SDS011;55902;-37.980;-63.602;2022-09-16T09:01:33;6.28;;;2.85;;
59960;SDS011;55902;-37.980;-63.602;2022-09-16T09:04:19;7.60;;;2.78;;
59960;SDS011;55902;-37.980;-63.602;2022-09-16T09:12:56;5.07;;;3.10;;
59960;SDS011;55902;-37.980;-63.602;2022-09-16T09:15:50;6.15;;;2.80;;
59960;SDS011;55902;-37.980;-63.602;2022-09-16T09:32:39;9.88;;;3.30;;
59960;SDS011;55902;-37.980;-63.602;2022-09-16T09:38:29;5.25;;;3.10;;
59960;SDS011;55902;-37.980;-63.602;2022-09-16T09:41:09;5.65;;;2.90;;
59960;SDS011;55902;-37.980;-63.602;2022-09-16T09:43:42;4.82;;;3.08;;
59960;SDS011;55902;-37.980;-63.602;2022-09-16T09:46:21;5.95;;;3.13;;
59960;SDS011;55902;-37.980;-63.602;2022-09-16T10:00:15;4.22;;;2.90;;
59960;SDS011;55902;-37.980;-63.602;2022-09-16T10:02:46;5.07;;;2.92;;
59960;SDS011;55902;-37.980;-63.602;2022-09-16T10:05:23;5.72;;;2.75;;
59960;SDS011;55902;-37.980;-63.602;2022-09-16T10:08:15;6.90;;;3.10;;
59960;SDS011;55902;-37.980;-63.602;2022-09-16T10:10:48;4.50;;;2.72;;
59960;SDS011;55902;-37.980;-63.602;2022-09-16T10:13:20;7.07;;;2.80;;
59960;SDS011;55902;-37.980;-63.602;2022-09-16T10:15:51;4.50;;;2.95;;
59960;SDS011;55902;-37.980;-63.602;2022-09-16T10:18:26;6.00;;;3.15;;
59960;SDS011;55902;-37.980;-63.602;2022-09-16T10:23:38;6.10;;;2.95;;
59960;SDS011;55902;-37.980;-63.602;2022-09-16T10:28:57;7.72;;;5.28;;
59960;SDS011;55902;-37.980;-63.602;2022-09-16T10:31:37;8.07;;;3.20;;
59960;SDS011;55902;-37.980;-63.602;2022-09-16T10:34:12;4.78;;;2.92;;
59960;SDS011;55902;-37.980;-63.602;2022-09-16T10:39:34;4.72;;;3.30;;
59960;SDS011;55902;-37.980;-63.602;2022-09-16T10:42:15;8.60;;;3.40;;
59960;SDS011;55902;-37.980;-63.602;2022-09-16T10:44:48;6.38;;;3.00;;
59960;SDS011;55902;-37.980;-63.602;2022-09-16T10:47:23;4.05;;;3.10;;
59960;SDS011;55902;-37.980;-63.602;2022-09-16T10:50:01;6.68;;;3.50;;
59960;SDS011;55902;-37.980;-63.602;2022-09-16T10:52:42;8.98;;;3.60;;
59960;SDS011;55902;-37.980;-63.602;2022-09-16T10:55:19;5.90;;;3.45;;
59960;SDS011;55902;-37.980;-63.602;2022-09-16T10:57:49;5.15;;;3.38;;
59960;SDS011;55902;-37.980;-63.602;2022-09-16T11:00:18;5.32;;;3.30;;
59960;SDS011;55902;-37.980;-63.602;2022-09-16T11:14:26;6.40;;;3.47;;
59960;SDS011;55902;-37.980;-63.602;2022-09-16T11:32:18;5.32;;;3.80;;
59960;SDS011;55902;-37.980;-63.602;2022-09-16T11:35:00;5.72;;;3.60;;
59960;SDS011;55902;-37.980;-63.602;2022-09-16T11:37:57;5.65;;;3.50;;
59960;SDS011;55902;-37.980;-63.602;2022-09-16T11:40:46;5.40;;;3.60;;
59960;SDS011;55902;-37.980;-63.602;2022-09-16T11:43:29;4.10;;;3.50;;
59960;SDS011;55902;-37.980;-63.602;2022-09-16T11:51:47;6.20;;;3.75;;
59960;SDS011;55902;-37.980;-63.602;2022-09-16T11:57:10;6.22;;;3.30;;
59960;SDS011;55902;-37.980;-63.602;2022-09-16T11:59:59;6.30;;;3.70;;
59960;SDS011;55902;-37.980;-63.602;2022-09-16T12:06:08;7.95;;;3.72;;
59960;SDS011;55902;-37.980;-63.602;2022-09-16T12:08:48;7.22;;;4.07;;
59960;SDS011;55902;-37.980;-63.602;2022-09-16T12:11:20;6.18;;;3.70;;
59960;SDS011;55902;-37.980;-63.602;2022-09-16T12:14:08;9.30;;;3.70;;
59960;SDS011;55902;-37.980;-63.602;2022-09-16T12:16:51;8.52;;;4.03;;
59960;SDS011;55902;-37.980;-63.602;2022-09-16T12:30:43;7.53;;;3.30;;
59960;SDS011;55902;-37.980;-63.602;2022-09-16T12:33:27;6.93;;;3.50;;
59960;SDS011;55902;-37.980;-63.602;2022-09-16T12:36:11;5.63;;;3.40;;
59960;SDS011;55902;-37.980;-63.602;2022-09-16T12:38:41;9.40;;;3.50;;
59960;SDS011;55902;-37.980;-63.602;2022-09-16T12:46:29;5.57;;;3.40;;
59960;SDS011;55902;-37.980;-63.602;2022-09-16T12:51:59;8.60;;;4.00;;
59960;SDS011;55902;-37.980;-63.602;2022-09-16T13:03:37;8.35;;;3.97;;
59960;SDS011;55902;-37.980;-63.602;2022-09-16T13:09:14;9.27;;;3.50;;
59960;SDS011;55902;-37.980;-63.602;2022-09-16T13:12:20;7.95;;;3.53;;
59960;SDS011;55902;-37.980;-63.602;2022-09-16T13:15:06;7.88;;;3.65;;
59960;SDS011;55902;-37.980;-63.602;2022-09-16T13:20:58;9.75;;;3.60;;
59960;SDS011;55902;-37.980;-63.602;2022-09-16T13:23:34;15.80;;;4.43;;
59960;SDS011;55902;-37.980;-63.602;2022-09-16T13:26:08;11.25;;;4.03;;
59960;SDS011;55902;-37.980;-63.602;2022-09-16T13:28:40;8.32;;;3.83;;
59960;SDS011;55902;-37.980;-63.602;2022-09-16T13:36:31;7.90;;;4.07;;
59960;SDS011;55902;-37.980;-63.602;2022-09-16T13:39:00;10.07;;;4.00;;
59960;SDS011;55902;-37.980;-63.602;2022-09-16T13:41:45;11.30;;;3.90;;
59960;SDS011;55902;-37.980;-63.602;2022-09-16T13:52:34;9.55;;;3.70;;
59960;SDS011;55902;-37.980;-63.602;2022-09-16T13:55:16;9.98;;;3.90;;
59960;SDS011;55902;-37.980;-63.602;2022-09-16T13:57:57;16.13;;;4.13;;
59960;SDS011;55902;-37.980;-63.602;2022-09-16T14:03:38;10.32;;;4.00;;
59960;SDS011;55902;-37.980;-63.602;2022-09-16T14:06:14;16.73;;;3.75;;
59960;SDS011;55902;-37.980;-63.602;2022-09-16T14:09:14;15.25;;;4.15;;
59960;SDS011;55902;-37.980;-63.602;2022-09-16T14:14:38;15.40;;;4.28;;
59960;SDS011;55902;-37.980;-63.602;2022-09-16T14:17:16;9.75;;;4.10;;
59960;SDS011;55902;-37.980;-63.602;2022-09-16T14:19:51;10.95;;;3.78;;
59960;SDS011;55902;-37.980;-63.602;2022-09-16T14:22:26;9.85;;;4.15;;
59960;SDS011;55902;-37.980;-63.602;2022-09-16T14:24:57;14.50;;;4.60;;
59960;SDS011;55902;-37.980;-63.602;2022-09-16T14:27:30;14.32;;;4.65;;
59960;SDS011;55902;-37.980;-63.602;2022-09-16T14:30:04;16.58;;;5.05;;
59960;SDS011;55902;-37.980;-63.602;2022-09-16T14:32:42;22.35;;;5.10;;
59960;SDS011;55902;-37.980;-63.602;2022-09-16T14:35:19;11.57;;;4.20;;
59960;SDS011;55902;-37.980;-63.602;2022-09-16T14:38:12;14.23;;;4.68;;
59960;SDS011;55902;-37.980;-63.602;2022-09-16T14:40:46;12.48;;;4.78;;
59960;SDS011;55902;-37.980;-63.602;2022-09-16T14:43:15;11.13;;;4.35;;
59960;SDS011;55902;-37.980;-63.602;2022-09-16T14:45:46;16.85;;;4.75;;
59960;SDS011;55902;-37.980;-63.602;2022-09-16T14:48:17;12.65;;;4.72;;
59960;SDS011;55902;-37.980;-63.602;2022-09-16T14:50:47;15.15;;;4.80;;
59960;SDS011;55902;-37.980;-63.602;2022-09-16T14:53:26;12.35;;;4.53;;
59960;SDS011;55902;-37.980;-63.602;2022-09-16T14:56:00;16.88;;;5.70;;
59960;SDS011;55902;-37.980;-63.602;2022-09-16T14:58:33;19.10;;;5.10;;
59960;SDS011;55902;-37.980;-63.602;2022-09-16T15:01:21;14.80;;;4.93;;
59960;SDS011;55902;-37.980;-63.602;2022-09-16T15:04:04;19.13;;;5.50;;
59960;SDS011;55902;-37.980;-63.602;2022-09-16T15:06:41;19.65;;;5.47;;
59960;SDS011;55902;-37.980;-63.602;2022-09-16T15:18:05;20.33;;;5.18;;
59960;SDS011;55902;-37.980;-63.602;2022-09-16T15:21:53;13.38;;;5.35;;
59960;SDS011;55902;-37.980;-63.602;2022-09-16T15:24:13;23.45;;;5.65;;
59960;SDS011;55902;-37.980;-63.602;2022-09-16T15:26:47;20.45;;;5.43;;
59960;SDS011;55902;-37.980;-63.602;2022-09-16T15:31:45;15.48;;;5.10;;
59960;SDS011;55902;-37.980;-63.602;2022-09-16T15:34:25;11.07;;;5.28;;
59960;SDS011;55902;-37.980;-63.602;2022-09-16T15:37:01;16.52;;;5.20;;
59960;SDS011;55902;-37.980;-63.602;2022-09-16T15:44:45;11.70;;;5.35;;
59960;SDS011;55902;-37.980;-63.602;2022-09-16T15:47:24;24.85;;;5.47;;
59960;SDS011;55902;-37.980;-63.602;2022-09-16T15:58:07;16.42;;;5.05;;
59960;SDS011;55902;-37.980;-63.602;2022-09-16T16:03:25;18.98;;;5.45;;
59960;SDS011;55902;-37.980;-63.602;2022-09-16T16:05:56;14.55;;;5.07;;
59960;SDS011;55902;-37.980;-63.602;2022-09-16T16:08:45;19.48;;;4.80;;
59960;SDS011;55902;-37.980;-63.602;2022-09-16T16:11:17;20.23;;;5.38;;
59960;SDS011;55902;-37.980;-63.602;2022-09-16T16:13:54;15.65;;;4.70;;
59960;SDS011;55902;-37.980;-63.602;2022-09-16T16:16:32;18.55;;;4.95;;
59960;SDS011;55902;-37.980;-63.602;2022-09-16T16:19:00;21.30;;;5.43;;
59960;SDS011;55902;-37.980;-63.602;2022-09-16T16:21:31;19.70;;;5.20;;
59960;SDS011;55902;-37.980;-63.602;2022-09-16T16:24:05;25.33;;;5.30;;
59960;SDS011;55902;-37.980;-63.602;2022-09-16T16:26:36;25.20;;;5.97;;
59960;SDS011;55902;-37.980;-63.602;2022-09-16T16:29:06;23.98;;;5.90;;
59960;SDS011;55902;-37.980;-63.602;2022-09-16T16:31:35;17.33;;;5.35;;
59960;SDS011;55902;-37.980;-63.602;2022-09-16T16:34:03;24.15;;;6.20;;
59960;SDS011;55902;-37.980;-63.602;2022-09-16T16:36:30;26.35;;;6.20;;
59960;SDS011;55902;-37.980;-63.602;2022-09-16T16:39:00;27.02;;;6.30;;
59960;SDS011;55902;-37.980;-63.602;2022-09-16T16:41:27;32.35;;;6.60;;
59960;SDS011;55902;-37.980;-63.602;2022-09-16T16:43:53;32.08;;;7.25;;
59960;SDS011;55902;-37.980;-63.602;2022-09-16T16:46:23;28.52;;;6.45;;
59960;SDS011;55902;-37.980;-63.602;2022-09-16T16:58:34;30.35;;;6.82;;
59960;SDS011;55902;-37.980;-63.602;2022-09-16T17:01:14;33.92;;;6.57;;
59960;SDS011;55902;-37.980;-63.602;2022-09-16T17:03:46;33.92;;;7.15;;
59960;SDS011;55902;-37.980;-63.602;2022-09-16T17:06:23;26.67;;;6.10;;
59960;SDS011;55902;-37.980;-63.602;2022-09-16T17:08:53;28.52;;;7.00;;
59960;SDS011;55902;-37.980;-63.602;2022-09-16T17:11:26;39.72;;;6.53;;
59960;SDS011;55902;-37.980;-63.602;2022-09-16T17:13:57;31.98;;;6.47;;
59960;SDS011;55902;-37.980;-63.602;2022-09-16T17:16:25;39.38;;;7.55;;
59960;SDS011;55902;-37.980;-63.602;2022-09-16T17:18:53;36.25;;;6.93;;
59960;SDS011;55902;-37.980;-63.602;2022-09-16T17:21:25;31.23;;;7.13;;
59960;SDS011;55902;-37.980;-63.602;2022-09-16T17:23:59;34.47;;;6.80;;
59960;SDS011;55902;-37.980;-63.602;2022-09-16T17:26:29;41.72;;;6.82;;
59960;SDS011;55902;-37.980;-63.602;2022-09-16T17:28:56;32.40;;;6.40;;
59960;SDS011;55902;-37.980;-63.602;2022-09-16T17:31:24;33.47;;;6.78;;
59960;SDS011;55902;-37.980;-63.602;2022-09-16T17:34:00;42.42;;;6.75;;
59960;SDS011;55902;-37.980;-63.602;2022-09-16T17:36:30;35.63;;;6.45;;
59960;SDS011;55902;-37.980;-63.602;2022-09-16T17:39:00;25.23;;;6.43;;
59960;SDS011;55902;-37.980;-63.602;2022-09-16T17:41:29;42.00;;;6.38;;
59960;SDS011;55902;-37.980;-63.602;2022-09-16T17:43:57;41.85;;;6.18;;
59960;SDS011;55902;-37.980;-63.602;2022-09-16T17:46:28;33.35;;;5.80;;
59960;SDS011;55902;-37.980;-63.602;2022-09-16T17:48:59;31.17;;;6.75;;
59960;SDS011;55902;-37.980;-63.602;2022-09-16T17:51:31;31.77;;;6.03;;
59960;SDS011;55902;-37.980;-63.602;2022-09-16T17:53:58;48.20;;;6.30;;
59960;SDS011;55902;-37.980;-63.602;2022-09-16T17:56:25;42.00;;;6.35;;
59960;SDS011;55902;-37.980;-63.602;2022-09-16T17:58:52;47.80;;;6.45;;
59960;SDS011;55902;-37.980;-63.602;2022-09-16T18:01:20;36.58;;;5.38;;
59960;SDS011;55902;-37.980;-63.602;2022-09-16T18:03:49;37.53;;;5.85;;
59960;SDS011;55902;-37.980;-63.602;2022-09-16T18:06:20;29.73;;;5.53;;
59960;SDS011;55902;-37.980;-63.602;2022-09-16T18:11:19;43.08;;;5.40;;
59960;SDS011;55902;-37.980;-63.602;2022-09-16T18:13:47;33.75;;;5.68;;
59960;SDS011;55902;-37.980;-63.602;2022-09-16T18:16:20;34.42;;;5.30;;
59960;SDS011;55902;-37.980;-63.602;2022-09-16T18:18:52;37.67;;;4.93;;
59960;SDS011;55902;-37.980;-63.602;2022-09-16T18:21:22;31.77;;;4.68;;
59960;SDS011;55902;-37.980;-63.602;2022-09-16T18:23:53;31.30;;;4.30;;
59960;SDS011;55902;-37.980;-63.602;2022-09-16T18:26:25;29.02;;;4.65;;
59960;SDS011;55902;-37.980;-63.602;2022-09-16T18:28:52;30.10;;;4.50;;
59960;SDS011;55902;-37.980;-63.602;2022-09-16T18:31:21;28.88;;;4.35;;
59960;SDS011;55902;-37.980;-63.602;2022-09-16T18:33:52;35.47;;;4.97;;
59960;SDS011;55902;-37.980;-63.602;2022-09-16T18:36:22;27.83;;;5.15;;
59960;SDS011;55902;-37.980;-63.602;2022-09-16T18:38:55;23.48;;;4.70;;
59960;SDS011;55902;-37.980;-63.602;2022-09-16T18:41:24;30.17;;;4.80;;
59960;SDS011;55902;-37.980;-63.602;2022-09-16T18:43:54;20.58;;;4.72;;
59960;SDS011;55902;-37.980;-63.602;2022-09-16T18:46:32;36.55;;;5.28;;
59960;SDS011;55902;-37.980;-63.602;2022-09-16T18:49:00;26.98;;;4.93;;
59960;SDS011;55902;-37.980;-63.602;2022-09-16T18:51:32;27.15;;;4.72;;
59960;SDS011;55902;-37.980;-63.602;2022-09-16T18:54:03;26.92;;;4.75;;
59960;SDS011;55902;-37.980;-63.602;2022-09-16T18:56:38;30.80;;;5.13;;
59960;SDS011;55902;-37.980;-63.602;2022-09-16T18:59:06;28.55;;;4.75;;
59960;SDS011;55902;-37.980;-63.602;2022-09-16T19:01:42;28.83;;;4.57;;
59960;SDS011;55902;-37.980;-63.602;2022-09-16T19:04:13;32.28;;;4.95;;
59960;SDS011;55902;-37.980;-63.602;2022-09-16T19:06:42;29.10;;;5.38;;
59960;SDS011;55902;-37.980;-63.602;2022-09-16T19:09:13;34.88;;;5.13;;
59960;SDS011;55902;-37.980;-63.602;2022-09-16T19:11:41;26.60;;;5.10;;
59960;SDS011;55902;-37.980;-63.602;2022-09-16T19:14:09;27.10;;;4.55;;
59960;SDS011;55902;-37.980;-63.602;2022-09-16T19:16:40;24.02;;;4.70;;
59960;SDS011;55902;-37.980;-63.602;2022-09-16T19:19:08;28.40;;;5.80;;
59960;SDS011;55902;-37.980;-63.602;2022-09-16T19:21:37;39.60;;;5.30;;
59960;SDS011;55902;-37.980;-63.602;2022-09-16T19:24:06;31.10;;;5.15;;